Time;durP1;ratioP1;P1;durP2;ratioP2;P2;SDS_P1;SDS_P2;PMS_P1;PMS_P2;Temp;Humidity;BMP_temperature;BMP_pressure;BME280_temperature;BME280_humidity;BME280_pressure;Samples;Min_cycle;Max_cycle;Signal;HPM_P1;HPM_P2
2022/03/03 00:01:14;;;;;;;16.43;13.37;;;;;;;3.72;59.26;95634.72;4344431;32;20208;-57
2022/03/03 00:03:41;;;;;;;16.10;13.73;;;;;;;3.38;60.91;95629.50;4339343;32;20313;-59
2022/03/03 00:06:10;;;;;;;16.73;12.97;;;;;;;3.25;61.64;95626.41;4364607;32;20269;-58
2022/03/03 00:08:37;;;;;;;16.90;11.10;;;;;;;3.32;61.56;95629.69;4335646;32;20459;-57
2022/03/03 00:11:12;;;;;;;14.90;12.23;;;;;;;3.24;61.13;95623.00;4344829;32;20285;-57
2022/03/03 00:13:38;;;;;;;17.40;11.83;;;;;;;3.19;61.38;95633.41;4370971;32;20260;-57
2022/03/03 00:16:12;;;;;;;16.20;12.37;;;;;;;3.29;60.60;95627.53;4334522;32;20648;-57
2022/03/03 00:18:39;;;;;;;18.90;12.63;;;;;;;3.40;60.32;95635.31;4344099;32;20306;-57
2022/03/03 00:21:14;;;;;;;13.93;11.60;;;;;;;3.47;60.11;95631.72;4346722;32;20325;-56
2022/03/03 00:23:39;;;;;;;15.93;12.60;;;;;;;3.47;60.03;95631.72;4347763;32;20285;-57
2022/03/03 00:26:11;;;;;;;12.93;11.27;;;;;;;3.38;60.36;95631.31;4345756;32;20277;-58
2022/03/03 00:28:37;;;;;;;14.57;11.60;;;;;;;2.94;62.09;95627.75;4340874;32;20296;-56
2022/03/03 00:31:12;;;;;;;14.40;11.77;;;;;;;2.96;62.05;95623.88;4361496;32;20334;-57
2022/03/03 00:33:42;;;;;;;17.90;11.33;;;;;;;3.14;61.33;95622.84;4336135;32;20288;-57
2022/03/03 00:36:14;;;;;;;14.70;10.80;;;;;;;3.28;60.80;95623.31;4353180;32;20285;-58
2022/03/03 00:38:41;;;;;;;14.53;11.37;;;;;;;3.21;60.53;95623.47;4373127;32;20292;-58
2022/03/03 00:41:19;;;;;;;16.23;11.33;;;;;;;3.19;60.60;95627.38;4332745;32;20363;-58
2022/03/03 00:43:45;;;;;;;12.88;10.27;;;;;;;3.14;60.56;95622.84;4352713;32;20397;-57
2022/03/03 00:46:16;;;;;;;15.65;10.30;;;;;;;3.27;60.41;95625.16;4361864;32;20193;-58
2022/03/03 00:48:41;;;;;;;13.87;10.60;;;;;;;3.30;60.26;95632.53;4341899;32;20177;-57
2022/03/03 00:51:11;;;;;;;15.23;10.90;;;;;;;3.29;60.21;95627.53;4357427;32;20311;-57
2022/03/03 00:53:37;;;;;;;13.83;11.07;;;;;;;3.20;60.22;95640.25;4316197;32;20194;-58
2022/03/03 00:56:12;;;;;;;19.30;11.03;;;;;;;3.17;60.58;95643.34;4312619;32;20294;-57
2022/03/03 00:58:39;;;;;;;12.37;10.37;;;;;;;3.14;60.98;95635.94;4342171;32;20313;-58
2022/03/03 01:01:18;;;;;;;13.80;10.63;;;;;;;3.17;60.73;95627.59;4349560;32;20311;-58
2022/03/03 01:03:45;;;;;;;13.02;10.90;;;;;;;3.24;60.55;95633.50;4324971;32;20311;-56
2022/03/03 01:06:13;;;;;;;11.77;10.57;;;;;;;3.13;60.79;95634.34;4337498;32;20204;-57
2022/03/03 01:08:41;;;;;;;13.83;10.37;;;;;;;3.19;60.72;95633.41;4354911;32;20215;-57
2022/03/03 01:11:13;;;;;;;15.00;10.90;;;;;;;3.20;60.64;95628.97;4348039;32;20291;-57
2022/03/03 01:13:41;;;;;;;11.50;9.63;;;;;;;3.19;60.62;95628.16;4349494;32;20381;-57
2022/03/03 01:16:14;;;;;;;14.35;10.02;;;;;;;3.15;60.57;95626.25;4358512;32;20285;-58
2022/03/03 01:18:40;;;;;;;12.73;10.17;;;;;;;3.03;60.98;95618.47;4337194;32;20185;-57
2022/03/03 01:21:16;;;;;;;14.60;10.47;;;;;;;3.04;61.26;95618.25;4369178;32;20348;-57
2022/03/03 01:23:42;;;;;;;13.20;10.23;;;;;;;2.81;61.67;95618.37;4332204;32;20223;-56
2022/03/03 01:26:14;;;;;;;12.02;10.52;;;;;;;2.89;61.73;95625.06;4329005;32;20289;-57
2022/03/03 01:28:39;;;;;;;11.00;9.80;;;;;;;3.02;60.98;95609.03;4318799;32;20186;-58
2022/03/03 01:31:11;;;;;;;13.50;9.70;;;;;;;2.93;61.56;95623.53;4325007;32;20192;-55
2022/03/03 01:33:37;;;;;;;10.93;9.83;;;;;;;2.97;61.55;95616.81;4339394;32;20201;-57
2022/03/03 01:36:11;;;;;;;11.80;9.98;;;;;;;3.02;61.04;95620.31;4325425;32;20387;-58
2022/03/03 01:38:38;;;;;;;12.87;10.37;;;;;;;2.75;61.70;95622.75;4325842;32;20243;-57
2022/03/03 01:41:15;;;;;;;11.87;10.37;;;;;;;2.74;62.62;95613.28;4315097;32;20361;-58
2022/03/03 01:43:41;;;;;;;11.02;9.93;;;;;;;2.74;62.84;95609.88;4344846;32;20305;-57
2022/03/03 01:46:17;;;;;;;16.58;10.40;;;;;;;2.86;61.87;95612.44;4345215;32;20188;-57
2022/03/03 01:48:44;;;;;;;11.50;10.38;;;;;;;2.76;62.37;95615.69;4322659;32;20186;-57
2022/03/03 01:51:12;;;;;;;10.98;9.80;;;;;;;2.81;61.91;95605.28;4315977;32;20219;-56
2022/03/03 01:53:42;;;;;;;10.40;9.37;;;;;;;2.66;62.24;95613.69;4359463;32;20208;-57
2022/03/03 01:56:36;;;;;;;10.55;9.48;;;;;;;2.92;61.96;95591.31;4360595;32;20281;-58
2022/03/03 01:59:05;;;;;;;15.82;10.45;;;;;;;2.81;62.00;95589.56;4338365;32;20188;-58
2022/03/03 02:01:32;;;;;;;12.90;10.43;;;;;;;2.65;62.64;95583.31;4344183;32;20219;-57
2022/03/03 02:03:59;;;;;;;11.65;10.32;;;;;;;2.56;63.45;95587.31;4352719;32;20185;-57
2022/03/03 02:06:27;;;;;;;10.38;9.32;;;;;;;2.65;63.35;95572.81;4322453;32;20181;-55
2022/03/03 02:08:55;;;;;;;11.90;9.80;;;;;;;2.84;62.36;95573.37;4331572;32;20221;-57
2022/03/03 02:11:22;;;;;;;13.60;10.07;;;;;;;2.75;62.35;95562.50;4344884;32;20189;-57
2022/03/03 02:13:49;;;;;;;10.70;9.60;;;;;;;2.67;63.19;95564.75;4326879;32;20291;-56
2022/03/03 02:16:17;;;;;;;14.68;10.38;;;;;;;2.64;63.21;95567.81;4337928;32;20286;-56
2022/03/03 02:18:49;;;;;;;13.45;11.07;;;;;;;2.78;62.53;95563.06;4358400;32;20193;-57
2022/03/03 02:21:16;;;;;;;10.15;9.07;;;;;;;2.65;62.82;95567.59;4365804;32;20253;-56
2022/03/03 02:23:42;;;;;;;13.52;9.70;;;;;;;2.38;63.47;95564.78;4333438;32;20221;-57
2022/03/03 02:26:26;;;;;;;10.88;9.32;;;;;;;2.53;63.32;95574.69;4325262;32;20193;-55
2022/03/03 02:28:53;;;;;;;13.30;9.82;;;;;;;2.50;63.16;95575.16;4342787;32;20237;-56
2022/03/03 02:31:20;;;;;;;11.38;9.35;;;;;;;2.51;63.16;95574.16;4355114;32;20238;-56
2022/03/03 02:33:47;;;;;;;13.82;9.77;;;;;;;2.44;63.46;95570.91;4354247;32;20185;-55
2022/03/03 02:36:28;;;;;;;10.50;9.40;;;;;;;2.23;64.41;95571.56;4342990;32;20324;-57
2022/03/03 02:39:01;;;;;;;11.25;9.38;;;;;;;2.18;64.21;95571.47;4330791;32;20205;-58
2022/03/03 02:41:28;;;;;;;10.60;9.32;;;;;;;2.24;64.16;95567.94;4361308;32;20189;-59
2022/03/03 02:43:56;;;;;;;14.65;9.57;;;;;;;2.34;64.38;95568.09;4360639;32;20186;-57
2022/03/03 02:46:24;;;;;;;12.50;9.73;;;;;;;1.97;65.01;95568.47;4322963;32;20240;-54
2022/03/03 02:48:50;;;;;;;10.15;9.15;;;;;;;2.05;65.34;95565.50;4332158;32;20197;-57
2022/03/03 02:51:15;;;;;;;9.73;8.70;;;;;;;1.93;65.13;95554.28;4336751;32;20223;-56
2022/03/03 02:53:41;;;;;;;13.83;11.23;;;;;;;2.03;65.27;95556.31;4357180;32;20254;-56
2022/03/03 02:56:09;;;;;;;12.18;9.45;;;;;;;2.12;64.77;95549.66;4335930;32;20224;-54
2022/03/03 02:58:39;;;;;;;10.80;9.52;;;;;;;2.21;64.25;95552.69;4341266;32;20216;-57
2022/03/03 03:01:14;;;;;;;10.43;9.48;;;;;;;2.13;64.54;95563.53;4331705;32;20319;-56
2022/03/03 03:03:40;;;;;;;13.73;9.07;;;;;;;2.16;64.14;95563.06;4340629;32;20214;-55
2022/03/03 03:06:14;;;;;;;10.88;8.88;;;;;;;1.96;64.83;95561.66;4363149;32;20211;-55
2022/03/03 03:08:40;;;;;;;9.50;8.57;;;;;;;1.78;65.46;95561.84;4353548;32;20303;-55
2022/03/03 03:11:13;;;;;;;10.13;9.17;;;;;;;1.66;66.05;95564.47;4347113;32;20190;-56
2022/03/03 03:13:39;;;;;;;13.62;8.75;;;;;;;1.72;65.80;95571.38;4345530;32;20260;-57
2022/03/03 03:16:14;;;;;;;10.57;8.68;;;;;;;1.77;65.72;95556.84;4359640;32;20238;-57
2022/03/03 03:18:41;;;;;;;10.05;8.98;;;;;;;1.88;65.47;95556.78;4361438;32;20191;-56
2022/03/03 03:21:13;;;;;;;9.35;8.40;;;;;;;1.78;65.72;95558.44;4348766;32;20185;-54
2022/03/03 03:23:40;;;;;;;9.27;8.38;;;;;;;1.85;65.47;95553.88;4331831;32;20184;-57
2022/03/03 03:26:11;;;;;;;10.10;9.10;;;;;;;1.76;65.14;95555.25;4332306;32;20284;-55
2022/03/03 03:28:38;;;;;;;8.95;8.05;;;;;;;2.00;64.32;95551.53;4363469;32;20196;-56
2022/03/03 03:31:18;;;;;;;8.77;7.93;;;;;;;1.95;64.41;95552.22;4368833;32;20218;-55
2022/03/03 03:33:45;;;;;;;10.05;8.85;;;;;;;1.82;64.82;95552.50;4362563;32;20322;-57
2022/03/03 03:36:11;;;;;;;9.75;8.38;;;;;;;1.73;65.57;95548.66;4377146;32;20244;-55
2022/03/03 03:38:39;;;;;;;11.68;9.20;;;;;;;1.93;64.80;95559.50;4385129;32;20188;-56
2022/03/03 03:41:25;;;;;;;10.77;8.95;;;;;;;1.82;65.04;95549.87;4356051;32;20215;-53
2022/03/03 03:43:52;;;;;;;10.95;9.15;;;;;;;1.76;65.24;95548.19;4357734;32;20218;-57
2022/03/03 03:46:19;;;;;;;9.93;8.57;;;;;;;1.56;65.42;95542.56;4373732;32;20239;-57
2022/03/03 03:48:45;;;;;;;10.70;9.57;;;;;;;1.57;65.98;95547.56;4358258;32;20218;-55
2022/03/03 03:51:18;;;;;;;10.35;8.93;;;;;;;1.70;65.12;95549.13;4347735;32;20208;-57
2022/03/03 03:53:45;;;;;;;9.95;8.88;;;;;;;1.74;64.95;95545.00;4355029;32;20375;-57
2022/03/03 03:56:13;;;;;;;9.90;8.90;;;;;;;0.97;67.67;95547.88;4351623;32;20189;-56
2022/03/03 03:58:39;;;;;;;10.60;8.73;;;;;;;1.21;67.65;95548.66;4337404;32;20182;-58
2022/03/03 04:01:19;;;;;;;10.80;8.57;;;;;;;1.15;67.74;95541.72;4355055;32;20226;-59
2022/03/03 04:03:46;;;;;;;9.30;8.30;;;;;;;1.08;67.78;95533.19;4324955;32;20201;-55
2022/03/03 04:06:14;;;;;;;9.43;8.23;;;;;;;1.28;67.19;95525.78;4350012;32;20211;-58
2022/03/03 04:08:41;;;;;;;10.95;9.68;;;;;;;1.39;66.94;95524.19;4340682;32;20185;-59
2022/03/03 04:11:14;;;;;;;10.57;8.73;;;;;;;1.44;66.42;95520.91;4354692;32;20188;-56
2022/03/03 04:13:40;;;;;;;10.10;9.20;;;;;;;1.56;65.98;95506.75;4350597;32;20197;-57
2022/03/03 04:16:16;;;;;;;11.00;8.63;;;;;;;1.37;66.55;95506.13;4335495;32;20185;-56
2022/03/03 04:18:43;;;;;;;9.65;8.75;;;;;;;1.40;66.63;95511.94;4312396;32;20201;-57
2022/03/03 04:21:15;;;;;;;8.82;7.90;;;;;;;1.59;65.57;95508.91;4326191;32;20185;-54
2022/03/03 04:23:42;;;;;;;10.23;8.57;;;;;;;1.55;65.61;95515.62;4346768;32;20212;-59
2022/03/03 04:26:12;;;;;;;8.65;7.95;;;;;;;1.46;65.80;95508.38;4328603;32;20233;-54
2022/03/03 04:28:40;;;;;;;9.63;8.35;;;;;;;1.45;66.25;95518.06;4331674;32;20202;-55
2022/03/03 04:31:12;;;;;;;9.65;8.52;;;;;;;1.38;66.45;95506.94;4374030;32;20220;-55
2022/03/03 04:33:39;;;;;;;8.98;8.07;;;;;;;1.29;66.59;95514.31;4371953;32;20200;-57
2022/03/03 04:36:15;;;;;;;10.18;8.30;;;;;;;1.40;66.60;95512.72;4346177;32;20239;-54
2022/03/03 04:38:42;;;;;;;9.75;8.75;;;;;;;1.26;66.48;95504.31;4364575;32;20164;-57
2022/03/03 04:41:19;;;;;;;10.35;8.13;;;;;;;1.38;66.33;95509.53;4351991;32;20182;-54
2022/03/03 04:43:46;;;;;;;10.95;8.15;;;;;;;1.40;65.82;95498.88;4348108;32;20260;-56
2022/03/03 04:46:16;;;;;;;10.38;8.10;;;;;;;1.45;65.66;95502.38;4342785;32;20193;-58
2022/03/03 04:48:46;;;;;;;8.50;7.65;;;;;;;1.43;65.82;95501.81;4363834;32;20189;-57
2022/03/03 04:51:15;;;;;;;9.10;8.05;;;;;;;1.57;65.33;95499.72;4346205;32;20224;-57
2022/03/03 04:53:42;;;;;;;8.60;7.90;;;;;;;1.55;65.02;95502.56;4346341;32;20181;-56
2022/03/03 04:56:15;;;;;;;11.30;8.55;;;;;;;1.39;65.79;95500.69;4357464;32;20185;-56
2022/03/03 04:58:40;;;;;;;9.85;8.85;;;;;;;1.57;65.02;95503.13;4338004;32;20201;-57
2022/03/03 05:01:19;;;;;;;9.50;7.93;;;;;;;1.57;65.04;95510.97;4341398;32;20248;-57
2022/03/03 05:03:44;;;;;;;9.45;7.70;;;;;;;1.57;64.82;95504.94;4347721;32;20176;-57
2022/03/03 05:06:12;;;;;;;10.00;8.33;;;;;;;1.38;65.38;95499.88;4369275;32;20195;-54
2022/03/03 05:08:40;;;;;;;8.48;7.68;;;;;;;1.44;65.38;95503.41;4334170;32;20254;-55
2022/03/03 05:11:11;;;;;;;9.73;8.73;;;;;;;1.34;65.52;95506.59;4320703;32;20258;-57
2022/03/03 05:13:37;;;;;;;10.40;8.57;;;;;;;1.32;65.69;95508.62;4358153;32;20188;-58
2022/03/03 05:16:11;;;;;;;8.87;7.97;;;;;;;1.33;65.87;95509.44;4348537;32;20218;-58
2022/03/03 05:18:36;;;;;;;10.07;8.13;;;;;;;1.25;65.95;95505.34;4358956;32;20189;-55
2022/03/03 05:21:17;;;;;;;9.23;8.17;;;;;;;1.15;66.06;95502.53;4359913;32;20249;-55
2022/03/03 05:23:44;;;;;;;8.80;7.93;;;;;;;1.24;65.98;95495.16;4335260;32;20189;-56
2022/03/03 05:26:13;;;;;;;9.13;8.32;;;;;;;1.33;65.82;95489.31;4339782;32;20188;-57
2022/03/03 05:28:41;;;;;;;9.07;8.15;;;;;;;1.43;65.39;95487.94;4334315;32;20196;-57
2022/03/03 05:31:17;;;;;;;9.02;8.13;;;;;;;1.23;65.90;95485.72;4319904;32;20228;-57
2022/03/03 05:33:43;;;;;;;11.30;8.70;;;;;;;1.37;65.92;95485.22;4326366;32;20204;-56
2022/03/03 05:36:13;;;;;;;12.20;8.32;;;;;;;1.37;66.41;95482.63;4333938;32;20201;-55
2022/03/03 05:38:40;;;;;;;10.55;8.75;;;;;;;1.37;66.59;95473.97;4321412;32;20204;-57
2022/03/03 05:41:16;;;;;;;11.98;8.93;;;;;;;1.34;66.91;95472.63;4309866;32;20244;-57
2022/03/03 05:43:44;;;;;;;8.95;8.02;;;;;;;1.56;66.26;95475.41;4338621;32;20252;-57
2022/03/03 05:46:14;;;;;;;9.10;8.15;;;;;;;1.48;66.44;95465.31;4335920;32;20212;-58
2022/03/03 05:48:41;;;;;;;8.75;7.93;;;;;;;1.33;67.01;95457.97;4332011;32;20255;-58
2022/03/03 05:51:14;;;;;;;9.60;8.65;;;;;;;1.51;66.23;95469.28;4358568;32;20231;-58
2022/03/03 05:53:42;;;;;;;10.45;8.75;;;;;;;1.59;66.29;95466.31;4381689;32;20212;-58
2022/03/03 05:56:16;;;;;;;9.27;8.38;;;;;;;1.50;66.57;95471.09;4372169;32;20180;-58
2022/03/03 05:58:48;;;;;;;11.18;8.00;;;;;;;1.53;66.64;95472.44;4357052;32;20203;-57
2022/03/03 06:01:16;;;;;;;11.93;8.70;;;;;;;1.44;66.56;95466.81;4329762;32;20256;-58
2022/03/03 06:03:50;;;;;;;9.52;8.60;;;;;;;1.62;66.24;95466.63;4341450;32;20193;-57
2022/03/03 06:06:31;;;;;;;10.95;8.40;;;;;;;1.64;65.66;95463.78;4378924;32;20272;-57
2022/03/03 06:09:14;;;;;;;13.85;9.30;;;;;;;1.58;66.18;95455.06;4344585;32;20196;-58
2022/03/03 06:12:30;;;;;;;10.02;8.60;;;;;;;1.58;66.76;95459.47;4312732;32;20193;-58
2022/03/03 06:15:04;;;;;;;12.32;9.02;;;;;;;1.67;66.91;95465.91;4357015;32;20189;-60
2022/03/03 06:17:30;;;;;;;11.70;9.90;;;;;;;1.45;67.75;95472.84;4362130;32;20179;-58
2022/03/03 06:20:10;;;;;;;12.20;8.70;;;;;;;1.40;68.17;95465.69;4370151;32;20290;-57
2022/03/03 06:22:37;;;;;;;9.55;8.43;;;;;;;1.40;68.07;95465.69;4367624;32;20251;-57
2022/03/03 06:25:06;;;;;;;13.80;8.55;;;;;;;1.20;68.56;95467.91;4317046;32;20197;-58
2022/03/03 06:27:33;;;;;;;15.65;8.45;;;;;;;1.41;68.22;95464.66;4348882;32;20189;-58
2022/03/03 06:30:00;;;;;;;16.15;8.50;;;;;;;1.57;67.50;95468.34;4348140;32;20200;-59
2022/03/03 06:32:26;;;;;;;11.27;8.82;;;;;;;1.48;67.66;95475.75;4330682;32;20193;-61
2022/03/03 06:34:53;;;;;;;10.13;8.73;;;;;;;1.64;67.05;95463.78;4329959;32;20181;-58
2022/03/03 06:37:18;;;;;;;18.30;9.55;;;;;;;1.68;66.78;95463.06;4364843;32;20230;-57
2022/03/03 06:39:45;;;;;;;15.00;9.37;;;;;;;1.78;66.67;95459.84;4370291;32;20252;-58
2022/03/03 06:42:11;;;;;;;14.77;8.93;;;;;;;1.87;66.15;95442.75;4337755;32;20193;-58
2022/03/03 06:44:38;;;;;;;10.27;8.63;;;;;;;1.44;67.50;95443.28;4338582;32;20193;-58
2022/03/03 06:47:05;;;;;;;13.15;9.35;;;;;;;1.26;68.32;95448.66;4377288;32;20188;-58
2022/03/03 06:49:32;;;;;;;14.60;9.40;;;;;;;1.49;68.01;95450.41;4365494;32;20184;-57
2022/03/03 06:52:03;;;;;;;13.50;9.40;;;;;;;1.61;67.25;95435.50;4372194;32;20199;-60
2022/03/03 06:54:34;;;;;;;16.05;9.20;;;;;;;1.72;67.07;95430.19;4357990;32;20239;-58
2022/03/03 06:56:59;;;;;;;8.82;8.02;;;;;;;1.86;66.23;95430.72;4360494;32;20263;-59
2022/03/03 06:59:30;;;;;;;17.13;8.33;;;;;;;1.71;66.64;95433.84;4360466;32;20221;-59
2022/03/03 07:01:59;;;;;;;12.50;9.30;;;;;;;1.79;66.55;95437.91;4341817;32;20196;-57
2022/03/03 07:04:24;;;;;;;10.75;8.35;;;;;;;1.80;66.14;95439.50;4312475;32;20253;-60
2022/03/03 07:06:50;;;;;;;17.30;8.70;;;;;;;1.89;65.77;95432.84;4321024;32;20181;-57
2022/03/03 07:09:19;;;;;;;14.80;8.83;;;;;;;1.85;65.98;95439.59;4351621;32;20223;-58
2022/03/03 07:11:49;;;;;;;14.15;9.02;;;;;;;1.86;66.00;95429.94;4358658;32;20281;-58
2022/03/03 07:14:15;;;;;;;9.30;7.97;;;;;;;2.00;65.24;95425.97;4378920;32;20260;-58
2022/03/03 07:17:12;;;;;;;10.10;7.77;;;;;;;2.04;64.75;95422.66;4354962;32;20177;-58
2022/03/03 07:19:54;;;;;;;9.43;7.50;;;;;;;1.78;65.29;95425.88;4368490;32;20230;-58
2022/03/03 07:22:38;;;;;;;8.13;7.30;;;;;;;1.60;65.46;95436.53;4340442;32;20198;-58
2022/03/03 07:25:17;;;;;;;9.55;7.18;;;;;;;1.96;64.90;95415.19;4324529;32;20232;-57
2022/03/03 07:28:06;;;;;;;10.75;7.65;;;;;;;1.92;65.05;95411.44;4333794;32;20197;-56
2022/03/03 07:30:39;;;;;;;10.30;7.68;;;;;;;2.04;64.17;95412.19;4342820;32;20190;-57
2022/03/03 07:33:30;;;;;;;9.05;6.85;;;;;;;2.11;64.32;95411.22;4355646;32;20193;-58
2022/03/03 07:35:57;;;;;;;8.80;7.05;;;;;;;2.16;64.49;95406.88;4333188;32;20185;-57
2022/03/03 07:38:30;;;;;;;12.35;7.22;;;;;;;2.24;64.00;95405.69;4352520;32;20193;-56
2022/03/03 07:40:59;;;;;;;9.43;6.97;;;;;;;2.24;64.16;95396.00;4340711;32;20234;-58
2022/03/03 07:43:27;;;;;;;8.05;7.00;;;;;;;2.35;63.84;95397.72;4343613;32;20181;-59
2022/03/03 07:45:56;;;;;;;11.18;7.07;;;;;;;2.37;64.13;95406.13;4372230;32;20181;-56
2022/03/03 07:48:27;;;;;;;9.32;7.25;;;;;;;2.27;64.47;95392.91;4358973;32;20197;-58
2022/03/03 07:50:54;;;;;;;20.23;7.53;;;;;;;2.57;63.65;95400.41;4350822;32;20211;-58
2022/03/03 07:53:20;;;;;;;16.37;8.90;;;;;;;2.68;63.33;95396.91;4330728;32;20196;-57
2022/03/03 07:55:49;;;;;;;17.62;7.68;;;;;;;2.81;62.79;95405.44;4345908;32;20360;-55
2022/03/03 07:58:39;;;;;;;13.50;7.82;;;;;;;2.96;62.62;95398.56;4356604;32;20260;-57
2022/03/03 08:01:22;;;;;;;12.10;7.05;;;;;;;3.05;62.38;95397.09;4322997;32;20201;-58
2022/03/03 08:03:49;;;;;;;10.30;7.17;;;;;;;2.93;62.58;95395.63;4308071;33;20198;-56
2022/03/03 08:06:17;;;;;;;10.20;7.10;;;;;;;3.13;62.06;95408.97;4325636;32;20428;-58
2022/03/03 08:08:45;;;;;;;15.48;7.82;;;;;;;3.30;61.93;95408.94;4309868;33;20290;-58
2022/03/03 08:11:19;;;;;;;9.03;6.93;;;;;;;3.37;61.16;95409.50;4316703;32;20173;-58
2022/03/03 08:13:52;;;;;;;7.70;6.50;;;;;;;3.32;59.88;95423.38;4334566;32;20284;-58
2022/03/03 08:16:19;;;;;;;8.90;6.40;;;;;;;3.16;60.09;95426.84;4328002;32;20382;-58
2022/03/03 08:18:46;;;;;;;9.87;7.50;;;;;;;3.29;60.29;95430.94;4321032;32;20365;-57
2022/03/03 08:21:19;;;;;;;8.87;7.63;;;;;;;3.34;60.69;95425.72;4327724;32;20351;-57
2022/03/03 08:23:50;;;;;;;11.20;7.73;;;;;;;3.39;59.97;95420.53;4294671;32;20424;-58
2022/03/03 08:26:20;;;;;;;13.20;8.53;;;;;;;3.66;60.12;95431.06;4332344;32;20447;-59
2022/03/03 08:28:46;;;;;;;13.80;8.70;;;;;;;3.84;59.11;95420.22;4321612;32;20292;-58
2022/03/03 08:31:57;;;;;;;13.53;8.43;;;;;;;3.90;59.11;95424.50;4359659;32;20277;-58
2022/03/03 08:34:57;;;;;;;10.13;8.63;;;;;;;3.95;59.09;95418.50;4248686;33;20291;-54
2022/03/03 08:37:45;;;;;;;11.27;9.27;;;;;;;4.06;58.51;95418.34;4320570;32;20298;-52
2022/03/03 08:40:16;;;;;;;10.53;9.20;;;;;;;4.15;59.01;95402.94;4361584;32;20281;-56
2022/03/03 08:42:56;;;;;;;11.53;8.97;;;;;;;4.34;58.42;95403.34;4362508;32;20284;-55
2022/03/03 08:45:23;;;;;;;13.80;9.17;;;;;;;4.47;58.53;95400.25;4347827;32;20315;-56
2022/03/03 08:48:03;;;;;;;12.17;9.57;;;;;;;4.43;58.34;95396.56;4362720;32;20276;-55
2022/03/03 08:50:33;;;;;;;16.53;7.30;;;;;;;4.79;56.67;95397.56;4362589;32;20284;-50
2022/03/03 08:53:01;;;;;;;12.93;7.57;;;;;;;6.14;78.69;95400.09;4334353;32;20268;-45
2022/03/03 08:55:29;;;;;;;15.93;9.20;;;;;;;8.37;71.99;95387.91;4350867;32;20352;-44
2022/03/03 08:58:07;;;;;;;12.37;8.20;;;;;;;9.77;59.80;95377.91;4313725;32;20282;-46
2022/03/03 09:00:33;;;;;;;15.20;8.17;;;;;;;11.28;56.05;95381.72;4320549;32;20323;-44
2022/03/03 09:03:02;;;;;;;12.87;7.70;;;;;;;11.91;52.01;95375.66;4327665;32;20278;-46
2022/03/03 09:05:32;;;;;;;12.00;8.23;;;;;;;12.61;49.26;95367.09;4355800;32;20209;-45
2022/03/03 09:07:58;;;;;;;14.00;8.70;;;;;;;13.13;47.36;95368.13;4331659;32;20208;-47
2022/03/03 09:10:25;;;;;;;11.30;8.17;;;;;;;13.62;46.92;95358.25;4317698;32;20185;-46
2022/03/03 09:12:52;;;;;;;17.60;8.63;;;;;;;13.95;44.88;95356.72;4336202;32;20208;-46
2022/03/03 09:15:20;;;;;;;13.13;8.17;;;;;;;14.18;44.79;95349.34;4345449;32;20193;-45
2022/03/03 09:17:51;;;;;;;9.40;8.40;;;;;;;14.36;42.90;95345.56;4327916;32;20186;-47
2022/03/03 09:20:17;;;;;;;14.93;8.30;;;;;;;14.53;42.78;95341.34;4321141;32;20204;-46
2022/03/03 09:22:46;;;;;;;12.47;8.73;;;;;;;14.64;42.20;95350.56;4326383;32;20258;-44
2022/03/03 09:25:12;;;;;;;11.50;9.50;;;;;;;14.65;41.79;95347.59;4308990;32;20235;-46
2022/03/03 09:27:41;;;;;;;10.70;9.27;;;;;;;14.55;38.72;95347.16;4330829;32;20197;-44
2022/03/03 09:30:11;;;;;;;16.73;9.33;;;;;;;14.28;38.72;95353.59;4336036;32;20291;-42
2022/03/03 09:32:38;;;;;;;15.23;9.13;;;;;;;14.83;44.66;95345.66;4314342;32;20215;-42
2022/03/03 09:35:06;;;;;;;17.87;8.57;;;;;;;14.27;43.41;95346.69;4309059;32;20193;-44
2022/03/03 09:37:35;;;;;;;14.97;9.10;;;;;;;15.44;43.95;95348.84;4329974;32;20239;-46
2022/03/03 09:40:02;;;;;;;14.47;9.43;;;;;;;16.10;42.59;95357.09;4328119;32;20220;-46
2022/03/03 09:42:34;;;;;;;11.97;10.90;;;;;;;16.48;40.33;95349.66;4322608;32;20196;-59
2022/03/03 09:45:10;;;;;;;13.03;11.80;;;;;;;13.98;34.21;95355.31;4352938;32;20188;-59
2022/03/03 09:47:38;;;;;;;13.03;11.60;;;;;;;11.95;37.43;95363.34;4357030;32;20220;-56
2022/03/03 09:50:12;;;;;;;12.97;11.77;;;;;;;10.50;39.99;95359.53;4348074;32;20189;-58
2022/03/03 09:52:38;;;;;;;19.17;12.67;;;;;;;9.52;42.30;95363.12;4340326;32;20216;-58
2022/03/03 09:55:08;;;;;;;15.13;11.33;;;;;;;8.90;43.84;95367.56;4354250;32;20245;-57
2022/03/03 09:57:35;;;;;;;16.83;12.23;;;;;;;8.37;45.27;95367.53;4344741;32;20197;-57
2022/03/03 10:00:08;;;;;;;14.40;12.80;;;;;;;8.21;46.56;95363.44;4355644;32;20332;-52
2022/03/03 10:03:13;;;;;;;13.67;12.27;;;;;;;7.87;47.29;95364.22;4359913;32;20344;-56
2022/03/03 10:05:48;;;;;;;16.03;12.80;;;;;;;7.63;48.20;95362.53;4335903;32;20349;-56
2022/03/03 10:08:23;;;;;;;15.67;12.70;;;;;;;7.54;48.55;95371.00;4339146;32;20401;-57
2022/03/03 10:11:13;;;;;;;16.53;13.43;;;;;;;7.35;48.83;95363.97;4335401;32;20286;-56
2022/03/03 10:13:52;;;;;;;14.70;12.07;;;;;;;7.05;48.42;95367.56;4324682;32;20289;-57
2022/03/03 10:16:40;;;;;;;13.83;12.43;;;;;;;7.03;49.24;95364.38;4355503;32;20320;-59
2022/03/03 10:19:10;;;;;;;13.87;11.37;;;;;;;7.22;48.15;95362.72;4354248;32;20280;-54
2022/03/03 10:21:38;;;;;;;15.40;11.90;;;;;;;7.26;47.54;95362.97;4359840;32;20293;-57
2022/03/03 10:24:24;;;;;;;13.60;12.30;;;;;;;7.23;48.04;95359.03;4359546;32;20305;-57
2022/03/03 10:27:04;;;;;;;13.30;11.90;;;;;;;7.36;47.59;95361.06;4339706;32;20369;-58
2022/03/03 10:29:32;;;;;;;14.87;12.17;;;;;;;7.37;47.68;95356.59;4270139;33;20294;-55
2022/03/03 10:32:09;;;;;;;17.27;12.57;;;;;;;7.63;46.90;95351.97;4310223;32;20295;-58
2022/03/03 10:34:38;;;;;;;12.97;11.77;;;;;;;7.53;47.62;95352.78;4352276;32;20348;-57
2022/03/03 10:37:09;;;;;;;13.40;11.27;;;;;;;7.61;47.16;95359.37;4360093;32;20344;-57
2022/03/03 10:39:48;;;;;;;12.57;10.50;;;;;;;7.57;45.87;95354.63;4340174;32;20312;-57
2022/03/03 10:42:23;;;;;;;9.73;8.67;;;;;;;7.48;44.24;95350.97;4321840;32;20350;-57
2022/03/03 10:44:50;;;;;;;14.30;12.43;;;;;;;7.68;40.49;95354.56;4348310;32;20399;-57
2022/03/03 10:47:25;;;;;;;10.57;9.47;;;;;;;7.63;40.88;95354.59;4329059;32;20318;-57
2022/03/03 10:49:54;;;;;;;11.03;9.63;;;;;;;7.65;41.05;95352.47;4337401;32;20289;-55
2022/03/03 10:52:29;;;;;;;10.70;9.60;;;;;;;7.61;41.74;95348.81;4361994;32;20365;-56
2022/03/03 10:55:14;;;;;;;11.93;9.97;;;;;;;7.85;42.47;95344.41;4333533;32;20307;-58
2022/03/03 10:58:00;;;;;;;15.13;10.37;;;;;;;7.90;43.53;95325.88;4349068;32;20304;-53
2022/03/03 11:00:29;;;;;;;11.07;9.53;;;;;;;7.92;42.36;95326.38;4319921;32;20275;-59
2022/03/03 11:03:00;;;;;;;10.13;9.13;;;;;;;8.17;42.84;95320.13;4297320;33;20357;-54
2022/03/03 11:05:28;;;;;;;10.23;9.33;;;;;;;8.27;40.60;95312.91;4334257;32;20327;-57
2022/03/03 11:07:58;;;;;;;10.53;9.63;;;;;;;8.23;40.96;95309.25;4344980;32;20294;-55
2022/03/03 11:10:27;;;;;;;12.47;9.50;;;;;;;8.46;41.48;95307.72;4319877;32;20300;-56
2022/03/03 11:12:54;;;;;;;9.57;8.77;;;;;;;8.44;40.12;95311.72;4335299;32;20300;-54
2022/03/03 11:15:25;;;;;;;9.00;8.20;;;;;;;8.45;38.37;95310.66;4342536;32;20293;-58
2022/03/03 11:17:52;;;;;;;9.90;9.00;;;;;;;8.50;37.83;95310.59;4346358;32;20344;-56
2022/03/03 11:20:19;;;;;;;11.33;6.50;;;;;;;8.24;38.68;95305.53;4354863;32;20352;-47
2022/03/03 11:22:46;;;;;;;16.47;6.97;;;;;;;9.52;59.58;95305.66;4317181;32;20380;-49
2022/03/03 11:25:41;;;;;;;8.50;6.50;;;;;;;11.22;53.81;95296.06;4329180;32;20293;-48
2022/03/03 11:28:14;;;;;;;10.17;8.97;;;;;;;12.95;43.51;95282.06;4327642;32;20317;-49
2022/03/03 11:30:45;;;;;;;8.63;7.93;;;;;;;13.98;36.13;95268.06;4311936;32;20180;-47
2022/03/03 11:33:47;;;;;;;9.27;8.23;;;;;;;14.51;33.82;95274.13;4325183;32;20244;-44
2022/03/03 11:36:20;;;;;;;10.50;9.57;;;;;;;14.75;33.86;95266.34;4338165;32;20207;-45
2022/03/03 11:39:04;;;;;;;9.60;8.50;;;;;;;14.99;33.86;95263.09;4334744;32;20303;-45
2022/03/03 11:41:50;;;;;;;8.87;7.97;;;;;;;15.66;35.65;95265.69;4336860;32;20202;-44
2022/03/03 11:44:15;;;;;;;8.23;7.50;;;;;;;15.78;29.51;95263.09;4343094;32;20268;-44
2022/03/03 11:46:49;;;;;;;9.00;8.13;;;;;;;15.92;32.94;95262.81;4289893;32;20189;-46
2022/03/03 11:49:20;;;;;;;10.27;9.37;;;;;;;16.12;30.22;95263.88;4306952;32;20208;-45
2022/03/03 11:52:10;;;;;;;8.63;7.97;;;;;;;16.15;29.30;95253.31;4358889;32;20211;-42